Kjahta, Russia
Current Conditions -  °F | °C
As of 11:00 AM on Friday 19 Dec 2014 (Local Time) from UIUU Reporting Station
Scattered Clouds Scattered Clouds  
Wind Chill: -2°   Ceiling: Unl
Heat Index: 12°   Visibility: 6mi
Dew Point:   Wind: 11mph
Humidity: 73%   Direction: 270°W
Pressure: 30.36"   Gusts: NA
Location:  50.35°N, 106.45°E
Report Text: UIUU 190300Z 27005MPS 9999 FEW033CB SCT100 M11/M15 Q1028 NOSIGRMK QFE726/0968 26410550
Loading
Personal Weather Stations






























Interactive Weather Map New forecast layout! Learn more

10-Day Weather Forecast

Advertisements
Track Severe Weather on mobile